sensor_id;sensor_type;location;lat;lon;timestamp;temperature;humidity
81192;DHT22;70665;47.652;-2.730;2023-07-28T00:00:59;19.90;93.80
81192;DHT22;70665;47.652;-2.730;2023-07-28T00:03:24;19.90;92.30
81192;DHT22;70665;47.652;-2.730;2023-07-28T00:05:50;19.90;93.80
81192;DHT22;70665;47.652;-2.730;2023-07-28T00:08:16;19.90;93.50
81192;DHT22;70665;47.652;-2.730;2023-07-28T00:10:42;19.80;92.80
81192;DHT22;70665;47.652;-2.730;2023-07-28T00:13:08;19.80;93.40
81192;DHT22;70665;47.652;-2.730;2023-07-28T00:15:34;19.80;93.10
81192;DHT22;70665;47.652;-2.730;2023-07-28T00:18:00;19.80;93.20
81192;DHT22;70665;47.652;-2.730;2023-07-28T00:20:27;19.80;93.20
81192;DHT22;70665;47.652;-2.730;2023-07-28T00:22:53;19.80;93.20
81192;DHT22;70665;47.652;-2.730;2023-07-28T00:25:19;19.80;92.40
81192;DHT22;70665;47.652;-2.730;2023-07-28T00:27:44;19.70;94.00
81192;DHT22;70665;47.652;-2.730;2023-07-28T00:30:11;19.80;93.50
81192;DHT22;70665;47.652;-2.730;2023-07-28T00:32:37;19.80;93.70
81192;DHT22;70665;47.652;-2.730;2023-07-28T00:35:03;19.70;93.10
81192;DHT22;70665;47.652;-2.730;2023-07-28T00:37:28;19.80;94.20
81192;DHT22;70665;47.652;-2.730;2023-07-28T00:39:54;19.80;93.60
81192;DHT22;70665;47.652;-2.730;2023-07-28T00:42:20;19.80;93.70
81192;DHT22;70665;47.652;-2.730;2023-07-28T00:44:45;19.80;92.40
81192;DHT22;70665;47.652;-2.730;2023-07-28T00:47:11;19.80;92.50
81192;DHT22;70665;47.652;-2.730;2023-07-28T00:49:38;19.80;93.00
81192;DHT22;70665;47.652;-2.730;2023-07-28T00:52:07;19.80;94.40
81192;DHT22;70665;47.652;-2.730;2023-07-28T00:54:33;19.80;93.00
81192;DHT22;70665;47.652;-2.730;2023-07-28T00:57:00;19.80;92.80
81192;DHT22;70665;47.652;-2.730;2023-07-28T00:59:27;19.80;93.50
81192;DHT22;70665;47.652;-2.730;2023-07-28T01:01:52;19.80;93.10
81192;DHT22;70665;47.652;-2.730;2023-07-28T01:04:18;19.80;93.30
81192;DHT22;70665;47.652;-2.730;2023-07-28T01:09:14;19.70;93.60
81192;DHT22;70665;47.652;-2.730;2023-07-28T01:11:57;19.80;93.50
81192;DHT22;70665;47.652;-2.730;2023-07-28T01:14:23;19.70;93.40
81192;DHT22;70665;47.652;-2.730;2023-07-28T01:16:49;19.80;93.60
81192;DHT22;70665;47.652;-2.730;2023-07-28T01:19:20;19.80;92.80
81192;DHT22;70665;47.652;-2.730;2023-07-28T01:21:54;19.80;92.90
81192;DHT22;70665;47.652;-2.730;2023-07-28T01:24:51;19.80;94.00
81192;DHT22;70665;47.652;-2.730;2023-07-28T01:27:21;19.80;93.10
81192;DHT22;70665;47.652;-2.730;2023-07-28T01:29:47;19.80;93.30
81192;DHT22;70665;47.652;-2.730;2023-07-28T01:32:14;19.90;92.70
81192;DHT22;70665;47.652;-2.730;2023-07-28T01:34:39;19.80;92.90
81192;DHT22;70665;47.652;-2.730;2023-07-28T01:37:05;19.90;92.50
81192;DHT22;70665;47.652;-2.730;2023-07-28T01:39:31;19.80;91.90
81192;DHT22;70665;47.652;-2.730;2023-07-28T01:41:56;19.90;92.10
81192;DHT22;70665;47.652;-2.730;2023-07-28T01:44:22;19.90;91.90
81192;DHT22;70665;47.652;-2.730;2023-07-28T01:46:48;19.80;92.30
81192;DHT22;70665;47.652;-2.730;2023-07-28T01:49:13;19.90;92.00
81192;DHT22;70665;47.652;-2.730;2023-07-28T01:51:39;19.90;92.50
81192;DHT22;70665;47.652;-2.730;2023-07-28T01:54:04;19.90;91.80
81192;DHT22;70665;47.652;-2.730;2023-07-28T01:56:30;19.90;92.00
81192;DHT22;70665;47.652;-2.730;2023-07-28T01:58:56;19.90;92.20
81192;DHT22;70665;47.652;-2.730;2023-07-28T02:01:21;19.90;92.70
81192;DHT22;70665;47.652;-2.730;2023-07-28T02:03:47;19.90;92.80
81192;DHT22;70665;47.652;-2.730;2023-07-28T02:06:12;19.70;93.90
81192;DHT22;70665;47.652;-2.730;2023-07-28T02:08:38;19.80;93.50
81192;DHT22;70665;47.652;-2.730;2023-07-28T02:11:04;19.80;92.60
81192;DHT22;70665;47.652;-2.730;2023-07-28T02:13:29;19.90;92.30
81192;DHT22;70665;47.652;-2.730;2023-07-28T02:15:55;19.90;91.90
81192;DHT22;70665;47.652;-2.730;2023-07-28T02:18:21;19.80;92.30
81192;DHT22;70665;47.652;-2.730;2023-07-28T02:20:50;19.90;93.20
81192;DHT22;70665;47.652;-2.730;2023-07-28T02:23:15;19.80;92.20
81192;DHT22;70665;47.652;-2.730;2023-07-28T02:25:41;20.00;91.90
81192;DHT22;70665;47.652;-2.730;2023-07-28T02:28:09;19.90;92.10
81192;DHT22;70665;47.652;-2.730;2023-07-28T02:30:35;19.80;92.20
81192;DHT22;70665;47.652;-2.730;2023-07-28T02:33:00;19.80;92.70
81192;DHT22;70665;47.652;-2.730;2023-07-28T02:35:26;19.80;93.40
81192;DHT22;70665;47.652;-2.730;2023-07-28T02:37:52;19.90;92.50
81192;DHT22;70665;47.652;-2.730;2023-07-28T02:40:17;19.80;91.80
81192;DHT22;70665;47.652;-2.730;2023-07-28T02:42:43;19.90;93.00
81192;DHT22;70665;47.652;-2.730;2023-07-28T02:45:09;19.80;93.50
81192;DHT22;70665;47.652;-2.730;2023-07-28T02:47:35;19.80;93.60
81192;DHT22;70665;47.652;-2.730;2023-07-28T02:50:01;19.90;92.60
81192;DHT22;70665;47.652;-2.730;2023-07-28T02:52:27;19.90;92.20
81192;DHT22;70665;47.652;-2.730;2023-07-28T02:54:53;19.80;92.20
81192;DHT22;70665;47.652;-2.730;2023-07-28T02:57:18;19.80;93.20
81192;DHT22;70665;47.652;-2.730;2023-07-28T02:59:44;19.80;93.60
81192;DHT22;70665;47.652;-2.730;2023-07-28T03:02:09;19.80;91.90
81192;DHT22;70665;47.652;-2.730;2023-07-28T03:04:35;19.80;92.00
81192;DHT22;70665;47.652;-2.730;2023-07-28T03:07:01;19.70;92.30
81192;DHT22;70665;47.652;-2.730;2023-07-28T03:09:26;19.80;92.00
81192;DHT22;70665;47.652;-2.730;2023-07-28T03:11:52;19.80;92.70
81192;DHT22;70665;47.652;-2.730;2023-07-28T03:14:18;19.80;92.10
81192;DHT22;70665;47.652;-2.730;2023-07-28T03:16:43;19.80;92.00
81192;DHT22;70665;47.652;-2.730;2023-07-28T03:19:09;19.80;92.00
81192;DHT22;70665;47.652;-2.730;2023-07-28T03:21:35;19.80;92.80
81192;DHT22;70665;47.652;-2.730;2023-07-28T03:24:00;19.80;91.80
81192;DHT22;70665;47.652;-2.730;2023-07-28T03:26:26;19.80;91.40
81192;DHT22;70665;47.652;-2.730;2023-07-28T03:28:51;19.80;92.30
81192;DHT22;70665;47.652;-2.730;2023-07-28T03:31:17;19.80;92.80
81192;DHT22;70665;47.652;-2.730;2023-07-28T03:33:43;19.80;91.90
81192;DHT22;70665;47.652;-2.730;2023-07-28T03:36:08;19.80;91.80
81192;DHT22;70665;47.652;-2.730;2023-07-28T03:38:34;19.90;92.00
81192;DHT22;70665;47.652;-2.730;2023-07-28T03:40:59;19.80;91.40
81192;DHT22;70665;47.652;-2.730;2023-07-28T03:43:25;19.80;91.80
81192;DHT22;70665;47.652;-2.730;2023-07-28T03:45:51;19.70;92.00
81192;DHT22;70665;47.652;-2.730;2023-07-28T03:48:16;19.80;91.40
81192;DHT22;70665;47.652;-2.730;2023-07-28T03:50:42;19.70;91.70
81192;DHT22;70665;47.652;-2.730;2023-07-28T03:53:08;19.80;91.30
81192;DHT22;70665;47.652;-2.730;2023-07-28T03:55:34;19.80;91.60
81192;DHT22;70665;47.652;-2.730;2023-07-28T03:57:59;19.70;91.60
81192;DHT22;70665;47.652;-2.730;2023-07-28T04:00:25;19.70;91.20
81192;DHT22;70665;47.652;-2.730;2023-07-28T04:02:51;19.70;91.30
81192;DHT22;70665;47.652;-2.730;2023-07-28T04:05:16;19.60;91.40
81192;DHT22;70665;47.652;-2.730;2023-07-28T04:07:42;19.70;91.50
81192;DHT22;70665;47.652;-2.730;2023-07-28T04:10:08;19.70;91.40
81192;DHT22;70665;47.652;-2.730;2023-07-28T04:12:33;19.70;91.30
81192;DHT22;70665;47.652;-2.730;2023-07-28T04:14:59;19.80;91.70
81192;DHT22;70665;47.652;-2.730;2023-07-28T04:17:25;19.70;91.40
81192;DHT22;70665;47.652;-2.730;2023-07-28T04:19:50;19.70;91.30
81192;DHT22;70665;47.652;-2.730;2023-07-28T04:22:16;19.60;91.30
81192;DHT22;70665;47.652;-2.730;2023-07-28T04:24:47;19.70;91.10
81192;DHT22;70665;47.652;-2.730;2023-07-28T04:27:13;19.70;90.90
81192;DHT22;70665;47.652;-2.730;2023-07-28T04:29:39;19.70;90.70
81192;DHT22;70665;47.652;-2.730;2023-07-28T04:32:05;19.70;90.80
81192;DHT22;70665;47.652;-2.730;2023-07-28T04:34:33;19.80;90.50
81192;DHT22;70665;47.652;-2.730;2023-07-28T04:36:59;19.70;90.50
81192;DHT22;70665;47.652;-2.730;2023-07-28T04:39:25;19.60;90.60
81192;DHT22;70665;47.652;-2.730;2023-07-28T04:41:50;19.70;90.70
81192;DHT22;70665;47.652;-2.730;2023-07-28T04:44:17;19.60;90.50
81192;DHT22;70665;47.652;-2.730;2023-07-28T04:46:43;19.80;90.10
81192;DHT22;70665;47.652;-2.730;2023-07-28T04:49:08;19.80;90.10
81192;DHT22;70665;47.652;-2.730;2023-07-28T04:51:34;19.80;90.10
81192;DHT22;70665;47.652;-2.730;2023-07-28T04:53:59;19.80;90.00
81192;DHT22;70665;47.652;-2.730;2023-07-28T04:56:25;19.70;90.20
81192;DHT22;70665;47.652;-2.730;2023-07-28T04:58:51;19.70;90.40
81192;DHT22;70665;47.652;-2.730;2023-07-28T05:01:16;19.70;90.40
81192;DHT22;70665;47.652;-2.730;2023-07-28T05:03:42;19.80;90.30
81192;DHT22;70665;47.652;-2.730;2023-07-28T05:06:07;19.80;90.00
81192;DHT22;70665;47.652;-2.730;2023-07-28T05:08:33;19.80;89.90
81192;DHT22;70665;47.652;-2.730;2023-07-28T05:10:59;19.70;90.10
81192;DHT22;70665;47.652;-2.730;2023-07-28T05:13:24;19.80;90.30
81192;DHT22;70665;47.652;-2.730;2023-07-28T05:15:50;19.80;89.90
81192;DHT22;70665;47.652;-2.730;2023-07-28T05:18:16;19.80;90.20
81192;DHT22;70665;47.652;-2.730;2023-07-28T05:20:41;19.80;89.70
81192;DHT22;70665;47.652;-2.730;2023-07-28T05:23:07;19.80;89.70
81192;DHT22;70665;47.652;-2.730;2023-07-28T05:25:32;20.00;89.60
81192;DHT22;70665;47.652;-2.730;2023-07-28T05:27:58;20.00;89.60
81192;DHT22;70665;47.652;-2.730;2023-07-28T05:30:24;19.90;89.80
81192;DHT22;70665;47.652;-2.730;2023-07-28T05:32:49;19.80;89.50
81192;DHT22;70665;47.652;-2.730;2023-07-28T05:35:16;19.80;89.60
81192;DHT22;70665;47.652;-2.730;2023-07-28T05:37:41;19.80;89.70
81192;DHT22;70665;47.652;-2.730;2023-07-28T05:40:07;19.80;89.70
81192;DHT22;70665;47.652;-2.730;2023-07-28T05:42:33;19.80;90.00
81192;DHT22;70665;47.652;-2.730;2023-07-28T05:44:59;19.70;89.90
81192;DHT22;70665;47.652;-2.730;2023-07-28T05:47:25;19.80;90.00
81192;DHT22;70665;47.652;-2.730;2023-07-28T05:49:51;19.70;90.70
81192;DHT22;70665;47.652;-2.730;2023-07-28T05:52:19;19.70;90.20
81192;DHT22;70665;47.652;-2.730;2023-07-28T05:54:45;19.90;89.60
81192;DHT22;70665;47.652;-2.730;2023-07-28T05:57:10;19.90;89.20
81192;DHT22;70665;47.652;-2.730;2023-07-28T05:59:36;19.90;89.30
81192;DHT22;70665;47.652;-2.730;2023-07-28T06:02:02;20.00;89.20
81192;DHT22;70665;47.652;-2.730;2023-07-28T06:04:27;20.10;89.00
81192;DHT22;70665;47.652;-2.730;2023-07-28T06:06:53;20.00;89.10
81192;DHT22;70665;47.652;-2.730;2023-07-28T06:09:19;20.10;89.20
81192;DHT22;70665;47.652;-2.730;2023-07-28T06:11:44;20.10;88.60
81192;DHT22;70665;47.652;-2.730;2023-07-28T06:14:10;20.30;88.10
81192;DHT22;70665;47.652;-2.730;2023-07-28T06:16:36;20.30;88.00
81192;DHT22;70665;47.652;-2.730;2023-07-28T06:19:01;20.40;87.70
81192;DHT22;70665;47.652;-2.730;2023-07-28T06:21:27;20.40;87.30
81192;DHT22;70665;47.652;-2.730;2023-07-28T06:23:53;20.40;87.20
81192;DHT22;70665;47.652;-2.730;2023-07-28T06:26:19;20.50;87.00
81192;DHT22;70665;47.652;-2.730;2023-07-28T06:28:44;20.40;86.80
81192;DHT22;70665;47.652;-2.730;2023-07-28T06:31:10;20.60;86.90
81192;DHT22;70665;47.652;-2.730;2023-07-28T06:33:36;20.60;86.30
81192;DHT22;70665;47.652;-2.730;2023-07-28T06:36:02;20.70;86.60
81192;DHT22;70665;47.652;-2.730;2023-07-28T06:38:28;20.70;86.20
81192;DHT22;70665;47.652;-2.730;2023-07-28T06:40:54;20.70;86.10
81192;DHT22;70665;47.652;-2.730;2023-07-28T06:43:20;20.70;85.70
81192;DHT22;70665;47.652;-2.730;2023-07-28T06:45:46;20.60;86.00
81192;DHT22;70665;47.652;-2.730;2023-07-28T06:48:12;20.70;86.20
81192;DHT22;70665;47.652;-2.730;2023-07-28T06:50:38;20.60;86.50
81192;DHT22;70665;47.652;-2.730;2023-07-28T06:53:04;20.70;86.90
81192;DHT22;70665;47.652;-2.730;2023-07-28T06:55:30;20.50;86.10
81192;DHT22;70665;47.652;-2.730;2023-07-28T06:57:55;20.60;86.10
81192;DHT22;70665;47.652;-2.730;2023-07-28T07:00:21;20.50;86.30
81192;DHT22;70665;47.652;-2.730;2023-07-28T07:02:47;20.60;86.40
81192;DHT22;70665;47.652;-2.730;2023-07-28T07:05:12;20.80;85.90
81192;DHT22;70665;47.652;-2.730;2023-07-28T07:07:39;20.80;85.60
81192;DHT22;70665;47.652;-2.730;2023-07-28T07:10:05;20.70;85.60
81192;DHT22;70665;47.652;-2.730;2023-07-28T07:12:31;20.70;85.90
81192;DHT22;70665;47.652;-2.730;2023-07-28T07:14:57;20.70;85.50
81192;DHT22;70665;47.652;-2.730;2023-07-28T07:17:23;20.70;85.80
81192;DHT22;70665;47.652;-2.730;2023-07-28T07:19:48;20.60;86.10
81192;DHT22;70665;47.652;-2.730;2023-07-28T07:22:14;20.60;85.80
81192;DHT22;70665;47.652;-2.730;2023-07-28T07:24:40;20.60;86.00
81192;DHT22;70665;47.652;-2.730;2023-07-28T07:27:06;20.60;85.40
81192;DHT22;70665;47.652;-2.730;2023-07-28T07:29:31;20.60;85.70
81192;DHT22;70665;47.652;-2.730;2023-07-28T07:31:57;20.70;85.40
81192;DHT22;70665;47.652;-2.730;2023-07-28T07:34:23;20.70;85.20
81192;DHT22;70665;47.652;-2.730;2023-07-28T07:36:49;20.70;84.80
81192;DHT22;70665;47.652;-2.730;2023-07-28T07:39:15;20.90;84.70
81192;DHT22;70665;47.652;-2.730;2023-07-28T07:41:41;20.90;84.50
81192;DHT22;70665;47.652;-2.730;2023-07-28T07:44:06;21.10;84.00
81192;DHT22;70665;47.652;-2.730;2023-07-28T07:46:32;21.10;83.80
81192;DHT22;70665;47.652;-2.730;2023-07-28T07:48:58;21.10;84.20
81192;DHT22;70665;47.652;-2.730;2023-07-28T07:51:23;21.20;83.90
81192;DHT22;70665;47.652;-2.730;2023-07-28T07:53:49;21.20;83.50
81192;DHT22;70665;47.652;-2.730;2023-07-28T07:56:15;21.10;82.90
81192;DHT22;70665;47.652;-2.730;2023-07-28T07:58:40;21.10;83.40
81192;DHT22;70665;47.652;-2.730;2023-07-28T08:01:06;21.10;83.60
81192;DHT22;70665;47.652;-2.730;2023-07-28T08:03:32;21.20;83.30
81192;DHT22;70665;47.652;-2.730;2023-07-28T08:05:58;21.30;82.90
81192;DHT22;70665;47.652;-2.730;2023-07-28T08:08:23;21.50;82.70
81192;DHT22;70665;47.652;-2.730;2023-07-28T08:10:50;21.70;82.50
81192;DHT22;70665;47.652;-2.730;2023-07-28T08:13:16;22.00;82.20
81192;DHT22;70665;47.652;-2.730;2023-07-28T08:15:45;22.00;82.10
81192;DHT22;70665;47.652;-2.730;2023-07-28T08:18:14;22.00;81.40
81192;DHT22;70665;47.652;-2.730;2023-07-28T08:20:40;22.10;80.40
81192;DHT22;70665;47.652;-2.730;2023-07-28T08:23:06;22.20;80.10
81192;DHT22;70665;47.652;-2.730;2023-07-28T08:25:33;22.30;80.80
81192;DHT22;70665;47.652;-2.730;2023-07-28T08:28:00;22.60;80.10
81192;DHT22;70665;47.652;-2.730;2023-07-28T08:30:25;22.80;79.80
81192;DHT22;70665;47.652;-2.730;2023-07-28T08:32:51;23.00;78.60
81192;DHT22;70665;47.652;-2.730;2023-07-28T08:35:17;23.10;78.30
81192;DHT22;70665;47.652;-2.730;2023-07-28T08:37:43;22.90;78.90
81192;DHT22;70665;47.652;-2.730;2023-07-28T08:40:09;22.50;78.30
81192;DHT22;70665;47.652;-2.730;2023-07-28T08:42:38;22.40;79.30
81192;DHT22;70665;47.652;-2.730;2023-07-28T08:45:04;22.20;78.70
81192;DHT22;70665;47.652;-2.730;2023-07-28T08:47:31;22.20;79.00
81192;DHT22;70665;47.652;-2.730;2023-07-28T08:49:57;22.40;80.90
81192;DHT22;70665;47.652;-2.730;2023-07-28T08:52:23;22.70;78.70
81192;DHT22;70665;47.652;-2.730;2023-07-28T08:54:49;22.80;78.90
81192;DHT22;70665;47.652;-2.730;2023-07-28T08:57:15;23.00;78.30
81192;DHT22;70665;47.652;-2.730;2023-07-28T08:59:41;23.10;76.10
81192;DHT22;70665;47.652;-2.730;2023-07-28T09:02:17;23.20;76.60
81192;DHT22;70665;47.652;-2.730;2023-07-28T09:04:47;23.10;76.40
81192;DHT22;70665;47.652;-2.730;2023-07-28T09:07:13;23.20;77.10
81192;DHT22;70665;47.652;-2.730;2023-07-28T09:09:40;23.40;76.50
81192;DHT22;70665;47.652;-2.730;2023-07-28T09:12:07;23.40;76.50
81192;DHT22;70665;47.652;-2.730;2023-07-28T09:14:35;23.40;75.30
81192;DHT22;70665;47.652;-2.730;2023-07-28T09:17:09;23.40;74.70
81192;DHT22;70665;47.652;-2.730;2023-07-28T09:19:34;23.50;75.50
81192;DHT22;70665;47.652;-2.730;2023-07-28T09:22:01;23.70;74.20
81192;DHT22;70665;47.652;-2.730;2023-07-28T09:24:31;23.70;75.70
81192;DHT22;70665;47.652;-2.730;2023-07-28T09:26:58;23.90;75.50
81192;DHT22;70665;47.652;-2.730;2023-07-28T09:29:26;24.00;75.00
81192;DHT22;70665;47.652;-2.730;2023-07-28T09:31:53;24.10;75.50
81192;DHT22;70665;47.652;-2.730;2023-07-28T09:34:28;24.30;72.60
81192;DHT22;70665;47.652;-2.730;2023-07-28T09:36:55;24.30;74.60
81192;DHT22;70665;47.652;-2.730;2023-07-28T09:39:21;24.20;72.40
81192;DHT22;70665;47.652;-2.730;2023-07-28T09:41:47;24.10;72.80
81192;DHT22;70665;47.652;-2.730;2023-07-28T09:44:14;24.00;73.00
81192;DHT22;70665;47.652;-2.730;2023-07-28T09:46:51;24.00;71.10
81192;DHT22;70665;47.652;-2.730;2023-07-28T09:49:27;23.80;71.40
81192;DHT22;70665;47.652;-2.730;2023-07-28T09:51:54;23.70;73.40
81192;DHT22;70665;47.652;-2.730;2023-07-28T09:54:28;23.60;71.10
81192;DHT22;70665;47.652;-2.730;2023-07-28T09:56:59;23.60;71.00
81192;DHT22;70665;47.652;-2.730;2023-07-28T09:59:29;23.70;71.10
81192;DHT22;70665;47.652;-2.730;2023-07-28T10:01:58;23.90;73.50
81192;DHT22;70665;47.652;-2.730;2023-07-28T10:04:24;24.00;71.40
81192;DHT22;70665;47.652;-2.730;2023-07-28T10:06:52;24.20;70.70
81192;DHT22;70665;47.652;-2.730;2023-07-28T10:09:30;24.00;70.60
81192;DHT22;70665;47.652;-2.730;2023-07-28T10:11:59;24.10;70.40
81192;DHT22;70665;47.652;-2.730;2023-07-28T10:14:29;24.40;70.30
81192;DHT22;70665;47.652;-2.730;2023-07-28T10:16:58;24.60;68.80
81192;DHT22;70665;47.652;-2.730;2023-07-28T10:19:25;24.70;72.50
81192;DHT22;70665;47.652;-2.730;2023-07-28T10:21:59;24.80;66.60
81192;DHT22;70665;47.652;-2.730;2023-07-28T10:25:05;24.80;68.40
81192;DHT22;70665;47.652;-2.730;2023-07-28T10:27:35;24.60;69.50
81192;DHT22;70665;47.652;-2.730;2023-07-28T10:30:04;24.50;70.70
81192;DHT22;70665;47.652;-2.730;2023-07-28T10:32:37;24.30;72.00
81192;DHT22;70665;47.652;-2.730;2023-07-28T10:37:44;24.10;72.60
81192;DHT22;70665;47.652;-2.730;2023-07-28T10:40:32;24.60;74.00
81192;DHT22;70665;47.652;-2.730;2023-07-28T10:43:02;25.20;70.40
81192;DHT22;70665;47.652;-2.730;2023-07-28T10:45:29;25.30;70.90
81192;DHT22;70665;47.652;-2.730;2023-07-28T10:47:57;25.20;68.10
81192;DHT22;70665;47.652;-2.730;2023-07-28T10:50:29;25.30;69.10
81192;DHT22;70665;47.652;-2.730;2023-07-28T10:52:55;25.00;70.00
81192;DHT22;70665;47.652;-2.730;2023-07-28T10:55:23;24.90;71.40
81192;DHT22;70665;47.652;-2.730;2023-07-28T10:57:51;25.00;69.00
81192;DHT22;70665;47.652;-2.730;2023-07-28T11:00:19;24.80;70.90
81192;DHT22;70665;47.652;-2.730;2023-07-28T11:02:53;24.50;70.70
81192;DHT22;70665;47.652;-2.730;2023-07-28T11:05:24;24.60;71.30
81192;DHT22;70665;47.652;-2.730;2023-07-28T11:07:53;24.90;68.70
81192;DHT22;70665;47.652;-2.730;2023-07-28T11:10:19;25.10;71.80
81192;DHT22;70665;47.652;-2.730;2023-07-28T11:12:48;25.10;67.90
81192;DHT22;70665;47.652;-2.730;2023-07-28T11:15:15;25.00;69.30
81192;DHT22;70665;47.652;-2.730;2023-07-28T11:17:49;24.70;69.30
81192;DHT22;70665;47.652;-2.730;2023-07-28T11:22:57;24.80;68.20
81192;DHT22;70665;47.652;-2.730;2023-07-28T11:25:24;24.50;69.60
81192;DHT22;70665;47.652;-2.730;2023-07-28T11:27:50;24.40;71.10
81192;DHT22;70665;47.652;-2.730;2023-07-28T11:30:17;24.50;72.00
81192;DHT22;70665;47.652;-2.730;2023-07-28T11:32:44;24.40;69.50
81192;DHT22;70665;47.652;-2.730;2023-07-28T11:35:12;24.50;71.30
81192;DHT22;70665;47.652;-2.730;2023-07-28T11:37:39;24.80;70.60
81192;DHT22;70665;47.652;-2.730;2023-07-28T11:40:07;25.10;69.30
81192;DHT22;70665;47.652;-2.730;2023-07-28T11:42:35;25.10;67.90
81192;DHT22;70665;47.652;-2.730;2023-07-28T11:45:03;25.30;67.90
81192;DHT22;70665;47.652;-2.730;2023-07-28T11:47:29;25.60;66.60
81192;DHT22;70665;47.652;-2.730;2023-07-28T11:49:56;25.90;65.30
81192;DHT22;70665;47.652;-2.730;2023-07-28T11:52:33;25.80;66.40
81192;DHT22;70665;47.652;-2.730;2023-07-28T11:55:00;25.20;67.50
81192;DHT22;70665;47.652;-2.730;2023-07-28T11:57:26;24.90;68.20
81192;DHT22;70665;47.652;-2.730;2023-07-28T11:59:53;24.60;69.10
81192;DHT22;70665;47.652;-2.730;2023-07-28T12:02:26;24.40;70.30
81192;DHT22;70665;47.652;-2.730;2023-07-28T12:04:52;24.20;71.30
81192;DHT22;70665;47.652;-2.730;2023-07-28T12:07:27;24.30;71.20
81192;DHT22;70665;47.652;-2.730;2023-07-28T12:09:53;24.40;68.80
81192;DHT22;70665;47.652;-2.730;2023-07-28T12:12:26;24.60;68.80
81192;DHT22;70665;47.652;-2.730;2023-07-28T12:14:52;24.90;65.70
81192;DHT22;70665;47.652;-2.730;2023-07-28T12:17:20;24.80;67.40
81192;DHT22;70665;47.652;-2.730;2023-07-28T12:20:05;24.70;66.60
81192;DHT22;70665;47.652;-2.730;2023-07-28T12:22:39;24.70;69.00
81192;DHT22;70665;47.652;-2.730;2023-07-28T12:25:05;24.80;68.10
81192;DHT22;70665;47.652;-2.730;2023-07-28T12:27:31;24.70;66.90
81192;DHT22;70665;47.652;-2.730;2023-07-28T12:29:57;24.60;66.90
81192;DHT22;70665;47.652;-2.730;2023-07-28T12:32:22;24.60;67.10
81192;DHT22;70665;47.652;-2.730;2023-07-28T12:34:49;24.50;67.30
81192;DHT22;70665;47.652;-2.730;2023-07-28T12:37:15;24.60;67.70
81192;DHT22;70665;47.652;-2.730;2023-07-28T12:39:41;25.10;67.40
81192;DHT22;70665;47.652;-2.730;2023-07-28T12:42:08;25.30;64.80
81192;DHT22;70665;47.652;-2.730;2023-07-28T12:44:35;25.90;66.30
81192;DHT22;70665;47.652;-2.730;2023-07-28T12:47:01;26.30;62.10
81192;DHT22;70665;47.652;-2.730;2023-07-28T12:49:27;26.70;62.80
81192;DHT22;70665;47.652;-2.730;2023-07-28T12:52:04;26.60;61.00
81192;DHT22;70665;47.652;-2.730;2023-07-28T12:54:32;26.20;61.50
81192;DHT22;70665;47.652;-2.730;2023-07-28T12:56:58;26.30;62.00
81192;DHT22;70665;47.652;-2.730;2023-07-28T12:59:24;26.50;62.80
81192;DHT22;70665;47.652;-2.730;2023-07-28T13:01:49;26.80;61.00
81192;DHT22;70665;47.652;-2.730;2023-07-28T13:04:15;26.80;60.40
81192;DHT22;70665;47.652;-2.730;2023-07-28T13:06:41;27.00;62.60
81192;DHT22;70665;47.652;-2.730;2023-07-28T13:09:07;27.60;57.70
81192;DHT22;70665;47.652;-2.730;2023-07-28T13:11:33;27.70;56.30
81192;DHT22;70665;47.652;-2.730;2023-07-28T13:13:59;27.50;60.30
81192;DHT22;70665;47.652;-2.730;2023-07-28T13:16:25;26.90;59.40
81192;DHT22;70665;47.652;-2.730;2023-07-28T13:18:52;26.50;60.30
81192;DHT22;70665;47.652;-2.730;2023-07-28T13:21:18;26.00;60.40
81192;DHT22;70665;47.652;-2.730;2023-07-28T13:23:44;26.00;63.90
81192;DHT22;70665;47.652;-2.730;2023-07-28T13:26:09;25.50;63.50
81192;DHT22;70665;47.652;-2.730;2023-07-28T13:28:35;25.10;64.60
81192;DHT22;70665;47.652;-2.730;2023-07-28T13:31:03;24.70;65.00
81192;DHT22;70665;47.652;-2.730;2023-07-28T13:33:30;24.40;66.10
81192;DHT22;70665;47.652;-2.730;2023-07-28T13:35:57;24.40;65.90
81192;DHT22;70665;47.652;-2.730;2023-07-28T13:38:23;24.40;66.40
81192;DHT22;70665;47.652;-2.730;2023-07-28T13:40:48;24.30;67.00
81192;DHT22;70665;47.652;-2.730;2023-07-28T13:43:14;24.00;66.10
81192;DHT22;70665;47.652;-2.730;2023-07-28T13:45:39;23.90;66.10
81192;DHT22;70665;47.652;-2.730;2023-07-28T13:48:05;24.10;67.10
81192;DHT22;70665;47.652;-2.730;2023-07-28T13:50:30;24.50;65.20
81192;DHT22;70665;47.652;-2.730;2023-07-28T13:52:56;24.40;63.70
81192;DHT22;70665;47.652;-2.730;2023-07-28T13:55:22;24.70;63.20
81192;DHT22;70665;47.652;-2.730;2023-07-28T13:57:47;24.70;63.40
81192;DHT22;70665;47.652;-2.730;2023-07-28T14:00:13;24.60;63.80
81192;DHT22;70665;47.652;-2.730;2023-07-28T14:02:39;24.60;64.50
81192;DHT22;70665;47.652;-2.730;2023-07-28T14:05:06;24.70;64.10
81192;DHT22;70665;47.652;-2.730;2023-07-28T14:07:32;25.10;63.70
81192;DHT22;70665;47.652;-2.730;2023-07-28T14:09:59;25.60;63.20
81192;DHT22;70665;47.652;-2.730;2023-07-28T14:12:25;25.60;60.20
81192;DHT22;70665;47.652;-2.730;2023-07-28T14:14:50;25.40;62.30
81192;DHT22;70665;47.652;-2.730;2023-07-28T14:17:16;25.20;64.20
81192;DHT22;70665;47.652;-2.730;2023-07-28T14:19:42;24.50;62.70
81192;DHT22;70665;47.652;-2.730;2023-07-28T14:22:08;24.40;63.80
81192;DHT22;70665;47.652;-2.730;2023-07-28T14:24:34;24.40;65.80
81192;DHT22;70665;47.652;-2.730;2023-07-28T14:27:00;24.50;66.90
81192;DHT22;70665;47.652;-2.730;2023-07-28T14:29:26;24.50;64.20
81192;DHT22;70665;47.652;-2.730;2023-07-28T14:31:52;24.40;64.40
81192;DHT22;70665;47.652;-2.730;2023-07-28T14:34:17;24.30;65.30
81192;DHT22;70665;47.652;-2.730;2023-07-28T14:36:43;24.10;64.80
81192;DHT22;70665;47.652;-2.730;2023-07-28T14:39:09;23.80;67.10
81192;DHT22;70665;47.652;-2.730;2023-07-28T14:41:35;23.60;67.10
81192;DHT22;70665;47.652;-2.730;2023-07-28T14:44:01;23.50;68.30
81192;DHT22;70665;47.652;-2.730;2023-07-28T14:46:27;23.50;68.70
81192;DHT22;70665;47.652;-2.730;2023-07-28T14:48:53;23.60;68.00
81192;DHT22;70665;47.652;-2.730;2023-07-28T14:51:18;24.30;68.90
81192;DHT22;70665;47.652;-2.730;2023-07-28T14:53:44;24.60;66.00
81192;DHT22;70665;47.652;-2.730;2023-07-28T14:56:14;24.80;65.60
81192;DHT22;70665;47.652;-2.730;2023-07-28T14:58:40;24.70;65.50
81192;DHT22;70665;47.652;-2.730;2023-07-28T15:01:06;24.80;67.60
81192;DHT22;70665;47.652;-2.730;2023-07-28T15:03:33;24.70;67.60
81192;DHT22;70665;47.652;-2.730;2023-07-28T15:06:00;24.60;67.40
81192;DHT22;70665;47.652;-2.730;2023-07-28T15:08:26;24.50;67.60
81192;DHT22;70665;47.652;-2.730;2023-07-28T15:10:52;24.30;68.90
81192;DHT22;70665;47.652;-2.730;2023-07-28T15:13:18;23.90;69.40
81192;DHT22;70665;47.652;-2.730;2023-07-28T15:15:44;23.60;70.70
81192;DHT22;70665;47.652;-2.730;2023-07-28T15:18:09;23.30;71.90
81192;DHT22;70665;47.652;-2.730;2023-07-28T15:20:36;23.10;72.50